Time;durP1;ratioP1;P1;durP2;ratioP2;P2;SDS_P1;SDS_P2;PMS_P1;PMS_P2;Temp;Humidity;BMP_temperature;BMP_pressure;BME280_temperature;BME280_humidity;BME280_pressure;Samples;Min_cycle;Max_cycle;Signal;HPM_P1;HPM_P2
2021/06/28 00:01:51;;;;;;;0.50;0.30;;;18.20;99.90;;;;;;5013210;28;20810;-79
2021/06/28 00:04:18;;;;;;;0.50;0.30;;;18.20;99.90;;;;;;5012949;28;20478;-78
2021/06/28 00:06:45;;;;;;;0.50;0.30;;;18.20;99.90;;;;;;5012368;28;20443;-78
2021/06/28 00:09:11;;;;;;;0.50;0.30;;;18.20;99.90;;;;;;5013030;28;20442;-79
2021/06/28 00:11:38;;;;;;;0.50;0.30;;;18.10;99.90;;;;;;5012952;28;21102;-78
2021/06/28 00:14:06;;;;;;;0.50;0.30;;;18.20;99.90;;;;;;5013127;28;20440;-78
2021/06/28 00:16:33;;;;;;;0.50;0.40;;;18.00;99.90;;;;;;5012596;28;20928;-77
2021/06/28 00:19:02;;;;;;;0.50;0.30;;;18.10;99.90;;;;;;5012664;28;20447;-78
2021/06/28 00:21:29;;;;;;;0.50;0.30;;;18.10;99.90;;;;;;5012759;28;20453;-79
2021/06/28 00:23:56;;;;;;;3.47;1.40;;;18.10;99.90;;;;;;5012467;28;20471;-78
2021/06/28 00:26:22;;;;;;;0.50;0.30;;;18.10;99.90;;;;;;5012541;28;20456;-78
2021/06/28 00:28:49;;;;;;;0.50;0.30;;;18.10;99.90;;;;;;5012997;28;20442;-78
2021/06/28 00:31:17;;;;;;;0.40;0.30;;;18.10;99.90;;;;;;5012295;28;20448;-78
2021/06/28 00:33:45;;;;;;;0.47;0.30;;;18.10;99.90;;;;;;5012461;28;20453;-79
2021/06/28 00:36:12;;;;;;;2.50;2.40;;;18.00;99.90;;;;;;5012467;28;20809;-75
2021/06/28 00:38:39;;;;;;;0.50;0.30;;;18.10;99.90;;;;;;5012441;28;20442;-78
2021/06/28 00:41:05;;;;;;;0.50;0.40;;;18.00;99.90;;;;;;5012721;28;20450;-79
2021/06/28 00:43:32;;;;;;;0.50;0.30;;;18.00;99.90;;;;;;5012494;28;20477;-78
2021/06/28 00:45:59;;;;;;;0.50;0.30;;;18.00;99.90;;;;;;5012072;28;20484;-78
2021/06/28 00:48:27;;;;;;;0.50;0.30;;;17.90;99.90;;;;;;5012597;28;20819;-80
2021/06/28 00:50:56;;;;;;;0.50;0.30;;;17.90;99.90;;;;;;5012704;28;20449;-79
2021/06/28 00:53:24;;;;;;;0.50;0.30;;;17.90;99.90;;;;;;5012334;28;20469;-77
2021/06/28 00:55:52;;;;;;;0.50;0.30;;;17.90;99.90;;;;;;5012535;28;20797;-78
2021/06/28 00:58:20;;;;;;;0.50;0.30;;;17.80;99.90;;;;;;5012654;28;20446;-79
2021/06/28 01:00:47;;;;;;;0.50;0.30;;;17.80;99.90;;;;;;5013018;28;20438;-79
2021/06/28 01:03:14;;;;;;;0.50;0.30;;;17.70;99.90;;;;;;5013693;28;20562;-78
2021/06/28 01:05:43;;;;;;;0.50;0.30;;;17.70;99.90;;;;;;5017023;28;20481;-79
2021/06/28 01:08:10;;;;;;;0.50;0.30;;;17.70;99.90;;;;;;5021780;28;20436;-78
2021/06/28 01:10:38;;;;;;;0.50;0.30;;;17.70;99.90;;;;;;5015824;28;20443;-78
2021/06/28 01:13:05;;;;;;;0.50;0.30;;;17.70;99.90;;;;;;5015943;28;20546;-78
2021/06/28 01:15:32;;;;;;;0.50;0.30;;;17.70;99.90;;;;;;5015608;28;20437;-78
2021/06/28 01:17:59;;;;;;;0.50;0.30;;;17.70;99.90;;;;;;5015412;28;20446;-78
2021/06/28 01:20:28;;;;;;;0.50;0.30;;;17.70;99.90;;;;;;5015331;28;20474;-78
2021/06/28 01:22:58;;;;;;;0.50;0.30;;;17.70;99.90;;;;;;5015071;28;20471;-77
2021/06/28 01:25:28;;;;;;;0.50;0.30;;;17.70;99.90;;;;;;5015230;28;20470;-75
2021/06/28 01:27:55;;;;;;;0.60;0.60;;;17.60;99.90;;;;;;5014855;28;20498;-79
2021/06/28 01:30:29;;;;;;;0.50;0.30;;;17.60;99.90;;;;;;5015421;28;20448;-78
2021/06/28 01:32:56;;;;;;;0.50;0.30;;;17.60;99.90;;;;;;5014844;28;20472;-79
2021/06/28 01:35:23;;;;;;;0.50;0.33;;;17.60;99.90;;;;;;5014722;28;20517;-78
2021/06/28 01:37:50;;;;;;;0.50;0.30;;;17.60;99.90;;;;;;5014741;28;20440;-78
2021/06/28 01:40:18;;;;;;;0.50;0.33;;;17.50;99.90;;;;;;5015087;28;20444;-77
2021/06/28 01:42:47;;;;;;;0.50;0.30;;;17.50;99.90;;;;;;5014918;28;21011;-79
2021/06/28 01:45:18;;;;;;;0.50;0.30;;;17.50;99.90;;;;;;5015544;28;20480;-78
2021/06/28 06:08:23;;;;;;;0.30;0.30;;;19.70;99.90;;;;;;5125824;27;20648;-79
2021/06/28 06:10:50;;;;;;;0.40;0.40;;;20.00;99.90;;;;;;5089748;28;20455;-78
2021/06/28 06:13:17;;;;;;;0.20;0.20;;;20.40;99.90;;;;;;5092101;28;20442;-78
2021/06/28 06:15:45;;;;;;;0.30;0.30;;;20.50;99.90;;;;;;5089638;28;20440;-78
2021/06/28 06:18:11;;;;;;;0.20;0.20;;;20.70;99.90;;;;;;5088528;28;20467;-78
2021/06/28 06:20:39;;;;;;;0.40;0.40;;;20.70;99.90;;;;;;5088984;28;20444;-78
2021/06/28 06:23:05;;;;;;;0.30;0.30;;;21.10;99.90;;;;;;5088601;28;20436;-78
2021/06/28 06:25:34;;;;;;;0.20;0.20;;;21.40;99.90;;;;;;5088410;28;20439;-78
2021/06/28 06:28:01;;;;;;;0.30;0.30;;;21.60;99.90;;;;;;5087620;28;20478;-78
2021/06/28 06:30:28;;;;;;;0.80;0.80;;;21.90;99.90;;;;;;5088408;28;20440;-79
2021/06/28 06:32:54;;;;;;;0.30;0.30;;;21.90;99.90;;;;;;5088232;28;20436;-78
2021/06/28 06:35:22;;;;;;;1.03;0.93;;;22.10;99.90;;;;;;5088278;28;20446;-78
2021/06/28 06:37:50;;;;;;;0.40;0.30;;;22.40;99.90;;;;;;5088096;28;20461;-78
2021/06/28 06:40:17;;;;;;;0.40;0.30;;;23.20;99.90;;;;;;5096433;28;20439;-78
2021/06/28 06:42:46;;;;;;;0.40;0.30;;;24.40;99.90;;;;;;5102118;28;20435;-78
2021/06/28 06:45:14;;;;;;;0.40;0.30;;;25.30;99.90;;;;;;5091927;28;20439;-78
2021/06/28 06:47:40;;;;;;;0.40;0.30;;;26.80;99.90;;;;;;5087658;28;21032;-78
2021/06/28 06:50:10;;;;;;;0.50;0.50;;;28.20;99.90;;;;;;5088079;28;20472;-77
2021/06/28 06:52:36;;;;;;;0.50;0.30;;;29.50;99.90;;;;;;5088415;28;20443;-78
2021/06/28 06:55:06;;;;;;;0.40;0.30;;;30.20;99.90;;;;;;5086961;28;20443;-78
2021/06/28 06:57:33;;;;;;;0.50;0.30;;;31.30;99.90;;;;;;5088236;28;20446;-75
2021/06/28 07:00:03;;;;;;;0.50;0.47;;;32.60;99.90;;;;;;5088182;28;20451;-78
2021/06/28 07:02:30;;;;;;;0.60;0.60;;;33.90;99.90;;;;;;5088418;28;21059;-79
2021/06/28 07:04:56;;;;;;;0.40;0.30;;;33.70;99.90;;;;;;5088213;28;20439;-79
2021/06/28 07:07:23;;;;;;;0.50;0.50;;;34.30;99.90;;;;;;5088336;28;20996;-78
2021/06/28 07:09:50;;;;;;;0.40;0.30;;;35.60;99.90;;;;;;5095264;28;20464;-77
2021/06/28 07:12:17;;;;;;;0.40;0.40;;;36.10;95.30;;;;;;5096357;28;20438;-78
2021/06/28 07:14:44;;;;;;;0.40;0.30;;;36.00;96.00;;;;;;5088960;28;20431;-78
2021/06/28 07:17:12;;;;;;;0.40;0.30;;;36.30;91.00;;;;;;5087985;28;20475;-79
2021/06/28 07:19:39;;;;;;;0.40;0.40;;;36.10;88.40;;;;;;5074721;28;20456;-77
2021/06/28 07:22:06;;;;;;;1.17;0.70;;;35.30;89.50;;;;;;5075024;28;20809;-78
2021/06/28 07:24:33;;;;;;;1.13;1.03;;;33.70;92.50;;;;;;5085941;28;20481;-78
2021/06/28 07:26:59;;;;;;;0.50;0.30;;;31.40;99.90;;;;;;5094377;28;20431;-79
2021/06/28 07:29:26;;;;;;;0.50;0.30;;;31.00;99.90;;;;;;5092833;28;20467;-79
2021/06/28 07:31:53;;;;;;;0.50;0.30;;;30.60;99.90;;;;;;5094858;28;20435;-79
2021/06/28 07:34:21;;;;;;;0.50;0.30;;;30.20;99.90;;;;;;5095323;28;20808;-79
2021/06/28 07:36:48;;;;;;;0.50;0.30;;;30.10;99.90;;;;;;5094404;28;20467;-79
2021/06/28 07:39:14;;;;;;;15.13;2.43;;;30.10;99.90;;;;;;5092250;28;20470;-78
2021/06/28 07:41:41;;;;;;;0.50;0.30;;;30.30;99.90;;;;;;5079697;28;20446;-78
2021/06/28 07:44:08;;;;;;;0.60;0.60;;;30.60;99.90;;;;;;5091773;28;20440;-78
2021/06/28 07:46:36;;;;;;;0.50;0.30;;;30.60;99.90;;;;;;5094086;28;20439;-78
2021/06/28 07:49:03;;;;;;;0.50;0.30;;;30.30;99.90;;;;;;5089454;28;20471;-79
2021/06/28 07:51:35;;;;;;;0.50;0.30;;;30.10;99.90;;;;;;5073171;28;20440;-78
2021/06/28 07:54:02;;;;;;;0.50;0.30;;;29.90;99.90;;;;;;5073362;28;20867;-78
2021/06/28 07:56:29;;;;;;;0.50;0.30;;;29.60;99.90;;;;;;5072855;28;20444;-78
2021/06/28 07:58:55;;;;;;;0.50;0.30;;;29.70;99.90;;;;;;5072886;28;20456;-79
2021/06/28 08:01:22;;;;;;;0.50;0.30;;;29.70;99.90;;;;;;5073371;28;20437;-77
2021/06/28 08:03:49;;;;;;;0.50;0.30;;;29.70;99.90;;;;;;5073172;28;20437;-78
2021/06/28 08:06:17;;;;;;;0.47;0.30;;;29.70;99.90;;;;;;5073210;28;20440;-77
2021/06/28 08:08:48;;;;;;;0.50;0.30;;;29.50;99.90;;;;;;5078541;28;20478;-77
2021/06/28 08:11:15;;;;;;;0.50;0.30;;;29.50;99.90;;;;;;5076359;28;20542;-78
2021/06/28 08:13:44;;;;;;;0.50;0.30;;;29.30;99.90;;;;;;5094783;28;20542;-78
2021/06/28 08:16:11;;;;;;;0.50;0.30;;;29.60;99.90;;;;;;5093493;28;20439;-78
2021/06/28 08:18:38;;;;;;;0.50;0.30;;;29.70;99.90;;;;;;5092839;28;20482;-77
2021/06/28 08:21:06;;;;;;;0.50;0.30;;;29.80;99.90;;;;;;5093473;28;20948;-78
2021/06/28 08:23:33;;;;;;;0.50;0.30;;;29.70;99.90;;;;;;5093274;28;20435;-78
2021/06/28 08:26:01;;;;;;;0.50;0.30;;;29.70;99.90;;;;;;5080983;28;20439;-78
2021/06/28 08:28:27;;;;;;;0.50;0.30;;;29.70;99.90;;;;;;5074643;28;20451;-78
2021/06/28 08:30:54;;;;;;;0.47;0.40;;;29.80;99.90;;;;;;5083265;28;20431;-78
2021/06/28 08:33:21;;;;;;;0.50;0.50;;;29.90;99.90;;;;;;5093399;28;20431;-79
2021/06/28 08:35:48;;;;;;;0.50;0.30;;;30.00;99.90;;;;;;5093225;28;20788;-79
2021/06/28 08:38:15;;;;;;;0.50;0.40;;;29.90;99.90;;;;;;5092465;28;20491;-79
2021/06/28 08:40:42;;;;;;;0.50;0.30;;;30.40;99.90;;;;;;5079795;28;20455;-79
2021/06/28 08:43:10;;;;;;;0.50;0.30;;;32.10;99.90;;;;;;5090439;28;20805;-79
2021/06/28 08:45:42;;;;;;;0.40;0.30;;;34.20;99.90;;;;;;5094365;28;20936;-78
2021/06/28 08:48:09;;;;;;;0.60;0.60;;;35.90;99.90;;;;;;5094170;28;20411;-79
2021/06/28 08:50:37;;;;;;;0.40;0.30;;;37.40;87.40;;;;;;5074607;28;20507;-78
2021/06/28 08:53:06;;;;;;;0.53;0.53;;;38.80;82.30;;;;;;5072070;28;20456;-78
2021/06/28 08:55:33;;;;;;;0.40;0.30;;;39.70;74.60;;;;;;5069411;28;20444;-81
2021/06/28 08:58:00;;;;;;;0.40;0.30;;;40.70;74.30;;;;;;5053153;28;20476;-76
2021/06/28 09:00:28;;;;;;;0.73;0.73;;;41.60;66.40;;;;;;5052356;28;20437;-80
2021/06/28 09:02:56;;;;;;;0.50;0.40;;;42.00;65.10;;;;;;5050074;28;21167;-79
2021/06/28 09:05:23;;;;;;;0.40;0.30;;;42.40;61.60;;;;;;5051487;28;20439;-78
2021/06/28 09:08:08;;;;;;;0.40;0.30;;;41.30;59.60;;;;;;5051268;28;20445;-78
2021/06/28 09:10:36;;;;;;;0.40;0.30;;;39.80;63.40;;;;;;5064039;28;20424;-78
2021/06/28 09:13:03;;;;;;;0.40;0.30;;;38.20;65.20;;;;;;5088581;28;20438;-78
2021/06/28 09:15:37;;;;;;;0.40;0.30;;;37.10;71.20;;;;;;5091778;28;20442;-78
2021/06/28 09:18:19;;;;;;;0.40;0.30;;;35.90;77.80;;;;;;5091775;28;20463;-78
2021/06/28 09:20:47;;;;;;;0.50;0.30;;;34.50;76.60;;;;;;5091570;28;20419;-78
2021/06/28 09:23:22;;;;;;;0.40;0.30;;;33.40;91.50;;;;;;5091415;28;20443;-78
2021/06/28 09:25:51;;;;;;;0.50;0.30;;;32.70;99.90;;;;;;5091544;28;20435;-77
2021/06/28 09:28:32;;;;;;;0.50;0.30;;;32.30;99.90;;;;;;5091697;28;20454;-78
2021/06/28 09:31:00;;;;;;;0.50;0.30;;;31.80;99.90;;;;;;5091420;28;20496;-77
2021/06/28 09:33:27;;;;;;;0.60;0.60;;;31.70;99.90;;;;;;5091699;28;20573;-78
2021/06/28 09:35:53;;;;;;;0.50;0.30;;;31.30;99.90;;;;;;5091839;28;20439;-78
2021/06/28 09:38:32;;;;;;;0.50;0.30;;;31.50;99.90;;;;;;5091127;28;20483;-78
2021/06/28 09:41:23;;;;;;;0.50;0.30;;;31.70;99.90;;;;;;5075341;28;20486;-77
2021/06/28 09:43:50;;;;;;;0.50;0.30;;;31.80;99.90;;;;;;5051780;28;20433;-77
2021/06/28 09:46:19;;;;;;;0.50;0.30;;;32.70;99.90;;;;;;5055121;28;20425;-77
2021/06/28 09:48:50;;;;;;;0.40;0.30;;;34.60;99.90;;;;;;5050621;28;20460;-77
2021/06/28 09:51:22;;;;;;;0.40;0.30;;;36.70;99.90;;;;;;5051370;28;20429;-78
2021/06/28 09:53:50;;;;;;;0.50;0.40;;;38.10;91.90;;;;;;5051558;28;20437;-77
2021/06/28 09:56:33;;;;;;;0.40;0.30;;;39.30;77.60;;;;;;5050592;28;20429;-79
2021/06/28 09:59:19;;;;;;;0.50;0.50;;;38.80;70.50;;;;;;5051027;28;20534;-78
2021/06/28 10:01:48;;;;;;;0.40;0.30;;;38.50;72.10;;;;;;5050937;28;20432;-78
2021/06/28 10:04:42;;;;;;;0.50;0.50;;;38.60;67.90;;;;;;5050848;28;21125;-76
2021/06/28 10:07:28;;;;;;;0.40;0.30;;;38.90;68.80;;;;;;5050624;28;20480;-77
2021/06/28 10:10:15;;;;;;;0.40;0.30;;;37.90;68.70;;;;;;5073540;28;20452;-73
2021/06/28 10:12:43;;;;;;;0.40;0.30;;;38.40;69.70;;;;;;5064249;28;20432;-78
2021/06/28 10:15:11;;;;;;;0.40;0.30;;;38.90;65.40;;;;;;5071119;28;20436;-79
2021/06/28 10:17:40;;;;;;;0.40;0.30;;;39.00;63.80;;;;;;5070531;28;20472;-78
2021/06/28 10:20:10;;;;;;;0.70;0.50;;;39.30;69.00;;;;;;5070531;28;20460;-78
2021/06/28 10:22:38;;;;;;;1.77;1.00;;;39.10;64.60;;;;;;5071404;28;20436;-78
2021/06/28 10:25:07;;;;;;;0.40;0.30;;;38.70;65.20;;;;;;5070491;28;20944;-77
2021/06/28 10:27:34;;;;;;;0.40;0.30;;;37.40;65.00;;;;;;5070867;28;20440;-78
2021/06/28 10:30:05;;;;;;;0.40;0.30;;;36.40;67.70;;;;;;5070784;28;20472;-78
2021/06/28 10:32:33;;;;;;;0.40;0.30;;;35.30;72.20;;;;;;5070663;28;20443;-78
2021/06/28 10:35:01;;;;;;;0.40;0.30;;;34.60;78.80;;;;;;5070951;28;20452;-77
2021/06/28 10:37:33;;;;;;;0.50;0.30;;;33.90;95.00;;;;;;5070464;28;20439;-78
2021/06/28 10:40:03;;;;;;;0.50;0.30;;;33.20;99.90;;;;;;5078629;28;20460;-78
2021/06/28 10:42:32;;;;;;;0.50;0.30;;;32.60;99.90;;;;;;5063923;28;20432;-79
2021/06/28 10:44:59;;;;;;;0.50;0.30;;;32.10;99.90;;;;;;5071324;28;20432;-78
2021/06/28 10:47:27;;;;;;;0.50;0.30;;;31.70;99.90;;;;;;5069861;28;20443;-78
2021/06/28 10:49:54;;;;;;;0.50;0.30;;;31.40;99.90;;;;;;5072494;28;20517;-79
2021/06/28 10:52:46;;;;;;;0.50;0.30;;;31.10;99.90;;;;;;5070896;28;20463;-77
2021/06/28 10:55:37;;;;;;;0.50;0.40;;;30.80;99.90;;;;;;5049582;28;20871;-78
2021/06/28 10:58:24;;;;;;;0.50;0.30;;;30.50;99.90;;;;;;5074327;28;20629;-79
2021/06/28 11:00:52;;;;;;;0.50;0.30;;;30.20;99.90;;;;;;5074019;28;20490;-78
2021/06/28 11:03:34;;;;;;;0.50;0.30;;;30.00;99.90;;;;;;5074476;28;20435;-78
2021/06/28 11:06:22;;;;;;;1.03;1.03;;;29.70;99.90;;;;;;5074664;28;20506;-78
2021/06/28 11:09:06;;;;;;;0.50;0.30;;;29.90;99.90;;;;;;5080469;28;20459;-78
2021/06/28 11:11:57;;;;;;;0.50;0.30;;;30.10;99.90;;;;;;5066345;28;20443;-79
2021/06/28 11:14:44;;;;;;;0.50;0.30;;;30.40;99.90;;;;;;5059177;28;20812;-77
2021/06/28 11:17:14;;;;;;;0.50;0.30;;;31.00;99.90;;;;;;5074616;28;20443;-77
2021/06/28 11:19:58;;;;;;;1.10;0.87;;;31.50;99.90;;;;;;5074401;28;20638;-78
2021/06/28 11:22:33;;;;;;;0.50;0.30;;;31.40;99.90;;;;;;5074078;28;20593;-78
2021/06/28 11:25:04;;;;;;;0.60;0.60;;;31.30;99.90;;;;;;5073991;28;20447;-77
2021/06/28 11:27:31;;;;;;;2.93;2.20;;;31.60;99.90;;;;;;5073401;28;20447;-78
2021/06/28 11:29:58;;;;;;;0.50;0.40;;;31.80;99.90;;;;;;5073747;28;20467;-77
2021/06/28 11:32:26;;;;;;;0.40;0.30;;;31.90;99.90;;;;;;5073922;28;20490;-77
2021/06/28 11:34:53;;;;;;;0.50;0.30;;;32.00;99.90;;;;;;5073525;28;20440;-77
2021/06/28 11:37:20;;;;;;;0.50;0.30;;;32.40;99.90;;;;;;5073993;28;20447;-78
2021/06/28 11:39:54;;;;;;;0.50;0.50;;;33.00;99.90;;;;;;5081201;28;20480;-77
2021/06/28 11:42:26;;;;;;;1.90;1.80;;;34.10;99.90;;;;;;5084635;28;20442;-78
2021/06/28 11:44:57;;;;;;;0.50;0.50;;;34.50;96.00;;;;;;5093990;28;20432;-77
2021/06/28 11:48:02;;;;;;;1.10;1.00;;;34.40;92.70;;;;;;5093658;28;20446;-78
2021/06/28 11:50:31;;;;;;;0.40;0.30;;;33.90;96.50;;;;;;5093427;28;20933;-77
2021/06/28 11:53:03;;;;;;;0.90;0.60;;;34.10;99.90;;;;;;5098559;28;20428;-77
2021/06/28 11:55:32;;;;;;;0.40;0.30;;;35.20;89.70;;;;;;5093099;28;20450;-78
2021/06/28 11:58:00;;;;;;;0.50;0.40;;;34.70;85.90;;;;;;5095813;28;20479;-78
2021/06/28 12:00:27;;;;;;;0.40;0.30;;;35.40;93.60;;;;;;5093549;28;20856;-76
2021/06/28 12:03:11;;;;;;;0.40;0.30;;;36.40;81.90;;;;;;5093695;28;20522;-76
2021/06/28 12:05:38;;;;;;;0.40;0.30;;;37.60;75.80;;;;;;5093637;28;20496;-76
2021/06/28 12:08:05;;;;;;;1.13;1.03;;;37.10;71.10;;;;;;5093043;28;20827;-77
2021/06/28 12:10:32;;;;;;;0.40;0.30;;;36.90;73.70;;;;;;5080474;28;20949;-77
2021/06/28 12:13:00;;;;;;;0.40;0.30;;;36.80;76.90;;;;;;5088939;28;20435;-76
2021/06/28 12:15:28;;;;;;;0.40;0.30;;;37.30;75.80;;;;;;5093499;28;20824;-79
2021/06/28 12:17:55;;;;;;;0.40;0.30;;;39.00;77.20;;;;;;5092655;28;20443;-77
2021/06/28 12:20:22;;;;;;;0.87;0.87;;;39.90;66.60;;;;;;5093096;28;20424;-77
2021/06/28 12:22:51;;;;;;;0.40;0.30;;;39.90;62.80;;;;;;5093533;28;20996;-77
2021/06/28 12:25:20;;;;;;;0.40;0.30;;;39.80;62.50;;;;;;5092914;28;20489;-78
2021/06/28 12:27:48;;;;;;;0.40;0.30;;;39.80;61.40;;;;;;5093378;28;20446;-77
2021/06/28 12:30:18;;;;;;;0.40;0.30;;;39.60;62.50;;;;;;5092654;28;20482;-75
2021/06/28 12:32:47;;;;;;;0.40;0.40;;;39.70;63.60;;;;;;5092461;28;20420;-78
2021/06/28 12:35:17;;;;;;;0.40;0.30;;;40.10;62.20;;;;;;5093217;28;20439;-77
2021/06/28 12:37:48;;;;;;;1.27;1.17;;;40.30;62.10;;;;;;5093111;28;20809;-77
2021/06/28 12:40:18;;;;;;;3.23;1.77;;;39.20;59.50;;;;;;5082081;28;20536;-78
2021/06/28 12:42:46;;;;;;;0.40;0.30;;;38.10;64.20;;;;;;5086822;28;20500;-77
2021/06/28 12:45:15;;;;;;;0.40;0.30;;;37.70;65.80;;;;;;5093527;28;20431;-75
2021/06/28 12:47:46;;;;;;;0.40;0.30;;;37.30;65.80;;;;;;5092307;28;20444;-78
2021/06/28 12:50:15;;;;;;;0.40;0.30;;;37.00;66.70;;;;;;5092882;28;20462;-78
2021/06/28 12:52:42;;;;;;;0.47;0.37;;;36.40;67.50;;;;;;5092353;28;20853;-77
2021/06/28 12:55:15;;;;;;;0.40;0.30;;;35.80;66.40;;;;;;5092256;28;20439;-75
2021/06/28 12:57:44;;;;;;;1.80;1.70;;;36.00;67.00;;;;;;5092130;28;20422;-77
2021/06/28 13:00:22;;;;;;;1.43;1.43;;;34.40;70.10;;;;;;5092181;28;20491;-77
2021/06/28 13:03:06;;;;;;;0.40;0.30;;;34.20;72.90;;;;;;5092757;28;20427;-77
2021/06/28 13:05:37;;;;;;;0.50;0.30;;;33.80;74.70;;;;;;5091863;28;20423;-78
2021/06/28 13:08:15;;;;;;;0.50;0.30;;;33.30;77.50;;;;;;5091801;28;20454;-78
2021/06/28 13:10:42;;;;;;;0.60;0.50;;;32.20;82.00;;;;;;5065005;28;20428;-78
2021/06/28 13:13:21;;;;;;;2.67;1.83;;;31.50;88.80;;;;;;5089694;28;20439;-78
2021/06/28 13:16:18;;;;;;;1.10;1.00;;;31.00;92.80;;;;;;5092005;28;20846;-78
2021/06/28 13:18:54;;;;;;;2.60;1.07;;;30.40;95.40;;;;;;5091780;28;20478;-78
2021/06/28 13:21:22;;;;;;;0.50;0.30;;;29.90;98.80;;;;;;5092324;28;20431;-78
2021/06/28 13:23:50;;;;;;;0.50;0.30;;;29.40;99.90;;;;;;5092027;28;20446;-78
2021/06/28 13:26:25;;;;;;;0.50;0.40;;;29.30;99.90;;;;;;5091977;28;20450;-78
2021/06/28 13:28:54;;;;;;;0.67;0.67;;;29.30;99.90;;;;;;5091714;28;20459;-78
2021/06/28 13:31:21;;;;;;;0.60;0.50;;;29.00;99.90;;;;;;5092327;28;20862;-78
2021/06/28 13:34:13;;;;;;;0.50;0.30;;;28.70;99.90;;;;;;5092216;28;20435;-78
2021/06/28 13:36:40;;;;;;;0.50;0.30;;;28.50;99.90;;;;;;5091764;28;20436;-78
2021/06/28 13:39:07;;;;;;;1.27;0.90;;;28.40;99.90;;;;;;5091951;28;20480;-77
2021/06/28 13:41:45;;;;;;;1.33;1.23;;;28.20;99.90;;;;;;5075716;28;20809;-76
2021/06/28 13:44:13;;;;;;;1.40;1.40;;;27.80;99.90;;;;;;5097594;28;20434;-78
2021/06/28 13:46:40;;;;;;;0.50;0.30;;;27.70;99.90;;;;;;5097461;28;20438;-78
2021/06/28 13:49:20;;;;;;;3.83;2.13;;;27.60;99.90;;;;;;5098800;28;20470;-79
2021/06/28 13:51:46;;;;;;;0.50;0.30;;;27.20;99.90;;;;;;5098939;28;20423;-79
2021/06/28 13:54:13;;;;;;;0.50;0.40;;;26.90;99.90;;;;;;5097697;28;20446;-78
2021/06/28 13:56:40;;;;;;;0.70;0.60;;;26.80;99.90;;;;;;5095214;28;20805;-77
2021/06/28 13:59:07;;;;;;;1.10;0.60;;;26.90;99.90;;;;;;5093683;28;20483;-79
2021/06/28 14:01:33;;;;;;;0.50;0.30;;;27.40;99.90;;;;;;5096925;28;20442;-79
2021/06/28 14:04:00;;;;;;;0.50;0.30;;;28.30;99.90;;;;;;5098059;28;20812;-79
2021/06/28 14:06:28;;;;;;;1.57;1.47;;;29.20;99.90;;;;;;5093426;28;20455;-78
2021/06/28 14:08:55;;;;;;;0.90;0.50;;;30.20;99.90;;;;;;5092852;28;20533;-76
2021/06/28 14:11:21;;;;;;;1.07;0.90;;;30.80;99.90;;;;;;5077057;28;20436;-79
2021/06/28 14:13:48;;;;;;;0.70;0.70;;;31.30;99.90;;;;;;5096912;28;20782;-79
2021/06/28 14:16:15;;;;;;;0.50;0.50;;;31.20;99.90;;;;;;5092596;28;20976;-78
2021/06/28 14:18:42;;;;;;;0.50;0.30;;;31.40;99.90;;;;;;5092792;28;20483;-77
2021/06/28 14:21:08;;;;;;;1.80;1.17;;;31.30;99.90;;;;;;5092895;28;20439;-78
2021/06/28 14:23:36;;;;;;;0.50;0.30;;;31.10;99.90;;;;;;5092877;28;20439;-77
2021/06/28 14:26:03;;;;;;;0.50;0.30;;;31.30;99.90;;;;;;5092316;28;20440;-78
2021/06/28 14:28:30;;;;;;;0.50;0.40;;;31.00;99.90;;;;;;5093523;28;20455;-79
2021/06/28 14:30:56;;;;;;;12.10;1.33;;;30.50;99.90;;;;;;5096324;28;21087;-77
2021/06/28 14:33:23;;;;;;;1.07;1.07;;;29.80;99.90;;;;;;5096599;28;20435;-78
2021/06/28 14:35:52;;;;;;;0.50;0.40;;;29.30;99.90;;;;;;5096466;28;20438;-79
2021/06/28 14:38:18;;;;;;;1.80;1.70;;;29.80;99.90;;;;;;5096492;28;20557;-78
2021/06/28 14:40:47;;;;;;;1.43;1.23;;;29.70;99.90;;;;;;5080768;28;20468;-77
2021/06/28 14:43:14;;;;;;;0.50;0.40;;;29.00;99.90;;;;;;5093765;28;20446;-78
2021/06/28 14:45:41;;;;;;;0.50;0.40;;;29.00;99.90;;;;;;5096342;28;20443;-79
2021/06/28 14:48:09;;;;;;;1.03;0.93;;;29.10;99.90;;;;;;5095761;28;20954;-79
2021/06/28 14:50:36;;;;;;;0.50;0.30;;;29.20;99.90;;;;;;5096620;28;20443;-79
2021/06/28 14:53:03;;;;;;;0.77;0.77;;;29.30;99.90;;;;;;5095746;28;20439;-77
2021/06/28 14:55:30;;;;;;;0.50;0.30;;;28.90;99.90;;;;;;5094968;28;20435;-79
2021/06/28 14:57:58;;;;;;;0.73;0.50;;;28.80;99.90;;;;;;5095450;28;20804;-78
2021/06/28 15:00:25;;;;;;;0.50;0.40;;;28.70;99.90;;;;;;5095747;28;20557;-79
2021/06/28 15:02:51;;;;;;;0.80;0.80;;;29.10;99.90;;;;;;5095425;28;20439;-78
2021/06/28 15:05:18;;;;;;;1.10;0.77;;;29.40;99.90;;;;;;5095980;28;20439;-79
2021/06/28 15:07:45;;;;;;;0.50;0.30;;;29.70;99.90;;;;;;5095077;28;20506;-78
2021/06/28 15:10:12;;;;;;;0.60;0.60;;;29.70;99.90;;;;;;5085601;28;20463;-78
2021/06/28 15:12:39;;;;;;;0.50;0.30;;;29.30;99.90;;;;;;5088530;28;20431;-77
2021/06/28 15:15:09;;;;;;;0.50;0.33;;;29.20;99.90;;;;;;5095633;28;20443;-76
2021/06/28 15:17:36;;;;;;;2.67;2.53;;;29.70;99.90;;;;;;5095204;28;20858;-82
2021/06/28 15:20:04;;;;;;;0.50;0.40;;;30.00;99.90;;;;;;5095498;28;20481;-79
2021/06/28 15:22:30;;;;;;;0.60;0.60;;;30.50;99.90;;;;;;5094976;28;20442;-79
2021/06/28 15:24:57;;;;;;;0.50;0.30;;;30.70;99.90;;;;;;5096356;28;20439;-76
2021/06/28 15:27:24;;;;;;;0.60;0.60;;;31.20;99.90;;;;;;5094135;28;20796;-78
2021/06/28 15:29:50;;;;;;;0.50;0.30;;;31.50;99.90;;;;;;5094255;28;20462;-77
2021/06/28 15:32:18;;;;;;;0.63;0.63;;;32.20;99.90;;;;;;5094810;28;20435;-77
2021/06/28 15:34:45;;;;;;;14.07;0.70;;;32.00;99.90;;;;;;5094379;28;20435;-78
2021/06/28 15:37:12;;;;;;;1.80;0.97;;;31.70;99.90;;;;;;5093316;28;20912;-77
2021/06/28 15:39:39;;;;;;;0.50;0.50;;;31.30;99.90;;;;;;5088197;28;20483;-77
2021/06/28 15:42:06;;;;;;;0.70;0.60;;;31.00;99.90;;;;;;5082129;28;20808;-78
2021/06/28 15:44:33;;;;;;;0.50;0.30;;;30.60;99.90;;;;;;5094218;28;20443;-78
2021/06/28 15:47:00;;;;;;;0.50;0.30;;;30.50;99.90;;;;;;5093663;28;20443;-77
2021/06/28 15:49:28;;;;;;;0.50;0.40;;;30.20;99.90;;;;;;5093404;28;20999;-78
2021/06/28 15:51:55;;;;;;;1.23;1.13;;;29.70;99.90;;;;;;5093936;28;20443;-78
2021/06/28 15:54:21;;;;;;;0.50;0.30;;;29.30;99.90;;;;;;5093862;28;20439;-78
2021/06/28 15:56:50;;;;;;;0.50;0.30;;;29.20;99.90;;;;;;5094292;28;20436;-79
2021/06/28 15:59:17;;;;;;;0.60;0.47;;;29.20;99.90;;;;;;5095338;28;21002;-79
2021/06/28 16:01:43;;;;;;;0.87;0.87;;;29.50;99.90;;;;;;5099049;28;20435;-79
2021/06/28 16:04:10;;;;;;;0.60;0.50;;;29.60;99.90;;;;;;5099691;28;20450;-80
2021/06/28 16:06:41;;;;;;;0.50;0.30;;;29.20;99.90;;;;;;5099280;28;20503;-78
2021/06/28 16:09:10;;;;;;;0.50;0.30;;;29.40;99.90;;;;;;5097219;28;20466;-79
2021/06/28 16:11:37;;;;;;;0.50;0.30;;;29.20;99.90;;;;;;5079743;28;20478;-78
2021/06/28 16:14:04;;;;;;;0.50;0.43;;;29.30;99.90;;;;;;5095779;28;20462;-75
2021/06/28 16:16:31;;;;;;;0.50;0.30;;;29.20;99.90;;;;;;5095585;28;20447;-80
2021/06/28 17:56:42;;;;;;;2.20;1.03;;;24.30;99.90;;;;;;5132997;27;21026;-78
2021/06/28 17:59:09;;;;;;;0.90;0.90;;;24.20;99.90;;;;;;5131068;28;20457;-78
2021/06/28 18:01:35;;;;;;;0.50;0.40;;;24.30;99.90;;;;;;5131252;27;20443;-78
2021/06/28 18:04:02;;;;;;;0.50;0.30;;;24.40;99.90;;;;;;4414257;27;10000709;-78
2021/06/28 18:06:29;;;;;;;0.50;0.30;;;24.40;99.90;;;;;;5124517;28;20194;-78
2021/06/28 18:08:56;;;;;;;0.50;0.40;;;24.40;99.90;;;;;;5125243;27;20499;-79
2021/06/28 18:11:24;;;;;;;0.50;0.30;;;24.40;99.90;;;;;;5133114;28;20457;-79
2021/06/28 18:13:53;;;;;;;0.60;0.50;;;24.40;99.90;;;;;;5134244;27;20440;-79
2021/06/28 18:16:21;;;;;;;0.60;0.57;;;24.40;99.90;;;;;;5135623;27;20435;-78
2021/06/28 18:18:47;;;;;;;0.60;0.40;;;24.40;99.90;;;;;;5136252;27;20450;-78
2021/06/28 18:21:14;;;;;;;0.50;0.40;;;24.30;99.90;;;;;;5134474;27;20445;-78
2021/06/28 18:23:42;;;;;;;0.50;0.30;;;24.30;99.90;;;;;;5135513;27;20437;-79
2021/06/28 18:26:09;;;;;;;0.50;0.30;;;24.20;99.90;;;;;;5134158;27;20430;-78
2021/06/28 18:28:36;;;;;;;0.50;0.40;;;24.20;99.90;;;;;;5133831;27;20468;-79
2021/06/28 18:31:07;;;;;;;0.50;0.40;;;24.10;99.90;;;;;;5134725;27;20437;-79
2021/06/28 18:33:36;;;;;;;0.63;0.63;;;24.10;99.90;;;;;;5137020;27;20570;-80
2021/06/28 18:36:04;;;;;;;0.50;0.30;;;24.00;99.90;;;;;;5135755;27;20533;-79
2021/06/28 18:38:30;;;;;;;0.50;0.30;;;24.00;99.90;;;;;;5135832;27;20471;-79
2021/06/28 18:40:57;;;;;;;0.50;0.30;;;23.90;99.90;;;;;;5134725;27;20441;-79
2021/06/28 18:43:29;;;;;;;0.97;0.73;;;23.80;99.90;;;;;;5135391;27;20440;-80
2021/06/28 18:45:56;;;;;;;0.50;0.30;;;23.70;99.90;;;;;;5136017;27;20422;-78
2021/06/28 18:48:24;;;;;;;1.97;1.87;;;23.60;99.90;;;;;;5135255;27;20464;-79
2021/06/28 18:50:51;;;;;;;0.80;0.80;;;23.60;99.90;;;;;;5134973;27;20437;-79
2021/06/28 18:53:18;;;;;;;1.47;0.57;;;23.50;99.90;;;;;;5135456;27;20438;-79
2021/06/28 18:55:48;;;;;;;0.77;0.77;;;23.50;99.90;;;;;;5134656;27;20562;-78